sensor_id;sensor_type;location;lat;lon;timestamp;temperature;humidity
7218;DHT22;3650;53.580;10.094;2022-07-05T00:01:00;18.40;56.20
7218;DHT22;3650;53.580;10.094;2022-07-05T00:03:27;18.40;56.50
7218;DHT22;3650;53.580;10.094;2022-07-05T00:05:55;18.40;57.10
7218;DHT22;3650;53.580;10.094;2022-07-05T00:08:22;18.40;57.00
7218;DHT22;3650;53.580;10.094;2022-07-05T00:10:50;18.40;57.00
7218;DHT22;3650;53.580;10.094;2022-07-05T00:13:17;18.40;57.00
7218;DHT22;3650;53.580;10.094;2022-07-05T00:15:44;18.40;57.10
7218;DHT22;3650;53.580;10.094;2022-07-05T00:18:11;18.40;57.40
7218;DHT22;3650;53.580;10.094;2022-07-05T00:20:38;18.40;57.80
7218;DHT22;3650;53.580;10.094;2022-07-05T00:23:05;18.30;57.70
7218;DHT22;3650;53.580;10.094;2022-07-05T00:25:31;18.30;56.90
7218;DHT22;3650;53.580;10.094;2022-07-05T00:28:00;18.30;56.90
7218;DHT22;3650;53.580;10.094;2022-07-05T00:30:27;18.30;56.90
7218;DHT22;3650;53.580;10.094;2022-07-05T00:32:53;18.30;57.00
7218;DHT22;3650;53.580;10.094;2022-07-05T00:35:20;18.30;57.50
7218;DHT22;3650;53.580;10.094;2022-07-05T00:37:47;18.30;57.20
7218;DHT22;3650;53.580;10.094;2022-07-05T00:40:14;18.30;57.50
7218;DHT22;3650;53.580;10.094;2022-07-05T00:42:41;18.30;57.00
7218;DHT22;3650;53.580;10.094;2022-07-05T00:45:10;18.20;57.60
7218;DHT22;3650;53.580;10.094;2022-07-05T00:47:37;18.20;58.00
7218;DHT22;3650;53.580;10.094;2022-07-05T00:50:05;18.20;57.70
7218;DHT22;3650;53.580;10.094;2022-07-05T00:52:32;18.20;58.10
7218;DHT22;3650;53.580;10.094;2022-07-05T00:54:59;18.20;56.90
7218;DHT22;3650;53.580;10.094;2022-07-05T00:57:26;18.20;56.80
7218;DHT22;3650;53.580;10.094;2022-07-05T00:59:53;18.20;58.10
7218;DHT22;3650;53.580;10.094;2022-07-05T01:02:22;18.20;56.80
7218;DHT22;3650;53.580;10.094;2022-07-05T01:04:49;18.20;56.90
7218;DHT22;3650;53.580;10.094;2022-07-05T01:07:18;18.20;56.80
7218;DHT22;3650;53.580;10.094;2022-07-05T01:09:45;18.20;56.90
7218;DHT22;3650;53.580;10.094;2022-07-05T01:12:12;18.10;57.50
7218;DHT22;3650;53.580;10.094;2022-07-05T01:14:41;18.20;57.80
7218;DHT22;3650;53.580;10.094;2022-07-05T01:17:08;18.10;57.90
7218;DHT22;3650;53.580;10.094;2022-07-05T01:19:36;18.20;58.00
7218;DHT22;3650;53.580;10.094;2022-07-05T01:22:06;18.20;57.40
7218;DHT22;3650;53.580;10.094;2022-07-05T01:24:39;18.20;58.10
7218;DHT22;3650;53.580;10.094;2022-07-05T01:27:06;18.10;58.60
7218;DHT22;3650;53.580;10.094;2022-07-05T01:29:33;18.10;58.70
7218;DHT22;3650;53.580;10.094;2022-07-05T01:32:00;18.10;59.20
7218;DHT22;3650;53.580;10.094;2022-07-05T01:34:27;18.00;59.10
7218;DHT22;3650;53.580;10.094;2022-07-05T01:36:54;18.00;60.40
7218;DHT22;3650;53.580;10.094;2022-07-05T01:39:21;18.00;60.00
7218;DHT22;3650;53.580;10.094;2022-07-05T01:41:50;17.90;60.20
7218;DHT22;3650;53.580;10.094;2022-07-05T01:44:17;17.90;60.80
7218;DHT22;3650;53.580;10.094;2022-07-05T01:46:43;17.90;60.60
7218;DHT22;3650;53.580;10.094;2022-07-05T01:49:13;18.00;60.60
7218;DHT22;3650;53.580;10.094;2022-07-05T01:51:48;17.90;60.50
7218;DHT22;3650;53.580;10.094;2022-07-05T01:54:15;18.00;61.20
7218;DHT22;3650;53.580;10.094;2022-07-05T01:56:42;18.00;61.30
7218;DHT22;3650;53.580;10.094;2022-07-05T01:59:11;18.00;61.30
7218;DHT22;3650;53.580;10.094;2022-07-05T02:01:39;17.90;61.20
7218;DHT22;3650;53.580;10.094;2022-07-05T02:04:07;18.00;61.30
7218;DHT22;3650;53.580;10.094;2022-07-05T02:06:35;18.00;61.40
7218;DHT22;3650;53.580;10.094;2022-07-05T02:09:04;17.90;61.40
7218;DHT22;3650;53.580;10.094;2022-07-05T02:11:31;18.00;61.40
7218;DHT22;3650;53.580;10.094;2022-07-05T02:13:58;17.90;61.70
7218;DHT22;3650;53.580;10.094;2022-07-05T02:16:27;17.90;62.30
7218;DHT22;3650;53.580;10.094;2022-07-05T02:18:54;17.90;62.30
7218;DHT22;3650;53.580;10.094;2022-07-05T02:21:21;17.90;62.50
7218;DHT22;3650;53.580;10.094;2022-07-05T02:23:48;17.90;62.60
7218;DHT22;3650;53.580;10.094;2022-07-05T02:26:16;17.90;62.50
7218;DHT22;3650;53.580;10.094;2022-07-05T02:28:43;17.80;63.10
7218;DHT22;3650;53.580;10.094;2022-07-05T02:31:10;17.80;63.20
7218;DHT22;3650;53.580;10.094;2022-07-05T02:33:38;17.80;62.70
7218;DHT22;3650;53.580;10.094;2022-07-05T02:36:07;17.80;63.00
7218;DHT22;3650;53.580;10.094;2022-07-05T02:38:34;17.80;62.70
7218;DHT22;3650;53.580;10.094;2022-07-05T02:41:04;17.80;62.70
7218;DHT22;3650;53.580;10.094;2022-07-05T02:43:32;17.80;62.60
7218;DHT22;3650;53.580;10.094;2022-07-05T02:45:59;17.80;62.10
7218;DHT22;3650;53.580;10.094;2022-07-05T02:48:26;17.70;62.70
7218;DHT22;3650;53.580;10.094;2022-07-05T02:50:55;17.70;62.50
7218;DHT22;3650;53.580;10.094;2022-07-05T02:53:22;17.70;63.10
7218;DHT22;3650;53.580;10.094;2022-07-05T02:55:49;17.60;63.30
7218;DHT22;3650;53.580;10.094;2022-07-05T02:58:16;17.60;63.30
7218;DHT22;3650;53.580;10.094;2022-07-05T03:00:43;17.60;63.50
7218;DHT22;3650;53.580;10.094;2022-07-05T03:03:10;17.60;63.50
7218;DHT22;3650;53.580;10.094;2022-07-05T03:05:37;17.60;63.20
7218;DHT22;3650;53.580;10.094;2022-07-05T03:08:05;17.60;63.50
7218;DHT22;3650;53.580;10.094;2022-07-05T03:10:33;17.60;63.60
7218;DHT22;3650;53.580;10.094;2022-07-05T03:13:01;17.60;64.00
7218;DHT22;3650;53.580;10.094;2022-07-05T03:15:28;17.60;63.80
7218;DHT22;3650;53.580;10.094;2022-07-05T03:17:55;17.70;63.70
7218;DHT22;3650;53.580;10.094;2022-07-05T03:20:22;17.70;63.40
7218;DHT22;3650;53.580;10.094;2022-07-05T03:22:49;17.60;63.10
7218;DHT22;3650;53.580;10.094;2022-07-05T03:25:17;17.60;63.60
7218;DHT22;3650;53.580;10.094;2022-07-05T03:27:44;17.60;63.70
7218;DHT22;3650;53.580;10.094;2022-07-05T03:30:11;17.60;64.40
7218;DHT22;3650;53.580;10.094;2022-07-05T03:32:38;17.60;65.00
7218;DHT22;3650;53.580;10.094;2022-07-05T03:35:06;17.60;65.10
7218;DHT22;3650;53.580;10.094;2022-07-05T03:37:33;17.60;65.10
7218;DHT22;3650;53.580;10.094;2022-07-05T03:40:00;17.60;65.50
7218;DHT22;3650;53.580;10.094;2022-07-05T03:42:28;17.60;65.40
7218;DHT22;3650;53.580;10.094;2022-07-05T03:44:55;17.60;65.30
7218;DHT22;3650;53.580;10.094;2022-07-05T03:47:22;17.60;65.20
7218;DHT22;3650;53.580;10.094;2022-07-05T03:49:48;17.60;64.80
7218;DHT22;3650;53.580;10.094;2022-07-05T03:52:15;17.70;64.90
7218;DHT22;3650;53.580;10.094;2022-07-05T03:54:42;17.70;64.70
7218;DHT22;3650;53.580;10.094;2022-07-05T03:57:10;17.70;64.80
7218;DHT22;3650;53.580;10.094;2022-07-05T03:59:39;17.70;65.60
7218;DHT22;3650;53.580;10.094;2022-07-05T04:02:06;17.70;66.20
7218;DHT22;3650;53.580;10.094;2022-07-05T04:04:33;17.60;66.20
7218;DHT22;3650;53.580;10.094;2022-07-05T04:07:00;17.60;66.30
7218;DHT22;3650;53.580;10.094;2022-07-05T04:09:27;17.60;66.30
7218;DHT22;3650;53.580;10.094;2022-07-05T04:11:54;17.60;66.70
7218;DHT22;3650;53.580;10.094;2022-07-05T04:14:21;17.60;67.20
7218;DHT22;3650;53.580;10.094;2022-07-05T04:16:49;17.50;66.70
7218;DHT22;3650;53.580;10.094;2022-07-05T04:19:16;17.50;66.80
7218;DHT22;3650;53.580;10.094;2022-07-05T04:21:42;17.60;67.20
7218;DHT22;3650;53.580;10.094;2022-07-05T04:24:09;17.60;67.70
7218;DHT22;3650;53.580;10.094;2022-07-05T04:26:37;17.60;67.90
7218;DHT22;3650;53.580;10.094;2022-07-05T04:29:04;17.60;67.50
7218;DHT22;3650;53.580;10.094;2022-07-05T04:31:31;17.50;67.80
7218;DHT22;3650;53.580;10.094;2022-07-05T04:33:59;17.50;68.40
7218;DHT22;3650;53.580;10.094;2022-07-05T04:36:26;17.50;68.40
7218;DHT22;3650;53.580;10.094;2022-07-05T04:38:53;17.50;68.40
7218;DHT22;3650;53.580;10.094;2022-07-05T04:41:20;17.50;68.40
7218;DHT22;3650;53.580;10.094;2022-07-05T04:43:47;17.50;68.40
7218;DHT22;3650;53.580;10.094;2022-07-05T04:46:14;17.60;69.30
7218;DHT22;3650;53.580;10.094;2022-07-05T04:48:41;17.60;68.40
7218;DHT22;3650;53.580;10.094;2022-07-05T04:51:10;17.60;68.20
7218;DHT22;3650;53.580;10.094;2022-07-05T04:53:36;17.50;67.50
7218;DHT22;3650;53.580;10.094;2022-07-05T04:56:04;17.50;67.20
7218;DHT22;3650;53.580;10.094;2022-07-05T04:58:31;17.50;66.40
7218;DHT22;3650;53.580;10.094;2022-07-05T05:00:58;17.50;66.30
7218;DHT22;3650;53.580;10.094;2022-07-05T05:03:25;17.60;65.60
7218;DHT22;3650;53.580;10.094;2022-07-05T05:05:52;17.60;65.30
7218;DHT22;3650;53.580;10.094;2022-07-05T05:08:20;17.60;65.10
7218;DHT22;3650;53.580;10.094;2022-07-05T05:10:47;17.60;64.90
7218;DHT22;3650;53.580;10.094;2022-07-05T05:13:14;17.60;64.80
7218;DHT22;3650;53.580;10.094;2022-07-05T05:15:41;17.70;64.60
7218;DHT22;3650;53.580;10.094;2022-07-05T05:18:08;17.70;64.10
7218;DHT22;3650;53.580;10.094;2022-07-05T05:20:35;17.70;63.70
7218;DHT22;3650;53.580;10.094;2022-07-05T05:23:02;17.70;63.30
7218;DHT22;3650;53.580;10.094;2022-07-05T05:25:30;17.70;63.40
7218;DHT22;3650;53.580;10.094;2022-07-05T05:27:57;17.70;63.00
7218;DHT22;3650;53.580;10.094;2022-07-05T05:30:24;17.70;63.10
7218;DHT22;3650;53.580;10.094;2022-07-05T05:32:51;17.80;62.70
7218;DHT22;3650;53.580;10.094;2022-07-05T05:35:17;17.80;62.60
7218;DHT22;3650;53.580;10.094;2022-07-05T05:37:47;17.80;62.40
7218;DHT22;3650;53.580;10.094;2022-07-05T05:40:15;17.80;61.80
7218;DHT22;3650;53.580;10.094;2022-07-05T05:42:43;17.80;61.70
7218;DHT22;3650;53.580;10.094;2022-07-05T05:45:11;17.80;62.00
7218;DHT22;3650;53.580;10.094;2022-07-05T05:47:45;17.80;61.70
7218;DHT22;3650;53.580;10.094;2022-07-05T05:50:12;17.80;61.70
7218;DHT22;3650;53.580;10.094;2022-07-05T05:52:39;17.80;61.70
7218;DHT22;3650;53.580;10.094;2022-07-05T05:55:07;17.90;61.50
7218;DHT22;3650;53.580;10.094;2022-07-05T05:57:34;17.90;61.30
7218;DHT22;3650;53.580;10.094;2022-07-05T06:00:03;17.90;62.60
7218;DHT22;3650;53.580;10.094;2022-07-05T06:02:30;18.00;61.00
7218;DHT22;3650;53.580;10.094;2022-07-05T06:04:57;18.00;60.30
7218;DHT22;3650;53.580;10.094;2022-07-05T06:07:24;18.00;60.00
7218;DHT22;3650;53.580;10.094;2022-07-05T06:09:51;18.10;60.10
7218;DHT22;3650;53.580;10.094;2022-07-05T06:12:18;18.10;60.10
7218;DHT22;3650;53.580;10.094;2022-07-05T06:14:44;18.20;59.90
7218;DHT22;3650;53.580;10.094;2022-07-05T06:17:13;18.20;58.10
7218;DHT22;3650;53.580;10.094;2022-07-05T06:19:39;18.20;58.10
7218;DHT22;3650;53.580;10.094;2022-07-05T06:22:06;18.20;58.50
7218;DHT22;3650;53.580;10.094;2022-07-05T06:24:33;18.20;58.70
7218;DHT22;3650;53.580;10.094;2022-07-05T06:27:00;18.20;58.10
7218;DHT22;3650;53.580;10.094;2022-07-05T06:29:27;18.20;57.80
7218;DHT22;3650;53.580;10.094;2022-07-05T06:31:54;18.20;56.80
7218;DHT22;3650;53.580;10.094;2022-07-05T06:34:22;18.20;57.20
7218;DHT22;3650;53.580;10.094;2022-07-05T06:36:49;18.30;57.20
7218;DHT22;3650;53.580;10.094;2022-07-05T06:39:16;18.30;57.00
7218;DHT22;3650;53.580;10.094;2022-07-05T06:41:42;18.30;56.90
7218;DHT22;3650;53.580;10.094;2022-07-05T06:44:09;18.30;56.90
7218;DHT22;3650;53.580;10.094;2022-07-05T06:46:36;18.30;56.80
7218;DHT22;3650;53.580;10.094;2022-07-05T06:49:03;18.30;56.90
7218;DHT22;3650;53.580;10.094;2022-07-05T06:51:31;18.30;57.00
7218;DHT22;3650;53.580;10.094;2022-07-05T06:53:58;18.40;57.70
7218;DHT22;3650;53.580;10.094;2022-07-05T06:56:25;18.40;57.70
7218;DHT22;3650;53.580;10.094;2022-07-05T06:58:51;18.40;57.30
7218;DHT22;3650;53.580;10.094;2022-07-05T07:01:18;18.50;57.10
7218;DHT22;3650;53.580;10.094;2022-07-05T07:03:45;18.50;57.10
7218;DHT22;3650;53.580;10.094;2022-07-05T07:06:13;18.50;56.80
7218;DHT22;3650;53.580;10.094;2022-07-05T07:08:41;18.60;56.10
7218;DHT22;3650;53.580;10.094;2022-07-05T07:11:26;18.60;55.40
7218;DHT22;3650;53.580;10.094;2022-07-05T07:13:53;18.70;55.40
7218;DHT22;3650;53.580;10.094;2022-07-05T07:16:20;18.70;55.00
7218;DHT22;3650;53.580;10.094;2022-07-05T07:18:46;18.70;55.80
7218;DHT22;3650;53.580;10.094;2022-07-05T07:21:13;18.70;56.30
7218;DHT22;3650;53.580;10.094;2022-07-05T07:23:42;18.70;56.20
7218;DHT22;3650;53.580;10.094;2022-07-05T07:26:09;18.80;55.20
7218;DHT22;3650;53.580;10.094;2022-07-05T07:28:35;18.80;55.20
7218;DHT22;3650;53.580;10.094;2022-07-05T07:31:02;18.90;55.20
7218;DHT22;3650;53.580;10.094;2022-07-05T07:33:29;18.90;53.30
7218;DHT22;3650;53.580;10.094;2022-07-05T07:35:56;18.90;52.50
7218;DHT22;3650;53.580;10.094;2022-07-05T07:38:22;19.00;49.20
7218;DHT22;3650;53.580;10.094;2022-07-05T07:40:51;19.00;49.20
7218;DHT22;3650;53.580;10.094;2022-07-05T07:43:18;19.00;48.70
7218;DHT22;3650;53.580;10.094;2022-07-05T07:45:45;19.10;49.60
7218;DHT22;3650;53.580;10.094;2022-07-05T07:48:12;19.10;50.40
7218;DHT22;3650;53.580;10.094;2022-07-05T07:50:38;19.10;49.60
7218;DHT22;3650;53.580;10.094;2022-07-05T07:53:05;19.10;50.00
7218;DHT22;3650;53.580;10.094;2022-07-05T07:55:32;19.10;49.10
7218;DHT22;3650;53.580;10.094;2022-07-05T07:58:00;19.10;49.20
7218;DHT22;3650;53.580;10.094;2022-07-05T08:00:27;19.10;48.10
7218;DHT22;3650;53.580;10.094;2022-07-05T08:02:54;19.00;48.10
7218;DHT22;3650;53.580;10.094;2022-07-05T08:05:21;19.00;46.70
7218;DHT22;3650;53.580;10.094;2022-07-05T08:07:48;18.90;46.80
7218;DHT22;3650;53.580;10.094;2022-07-05T08:10:16;19.00;46.70
7218;DHT22;3650;53.580;10.094;2022-07-05T08:12:43;19.00;46.40
7218;DHT22;3650;53.580;10.094;2022-07-05T08:15:11;19.00;46.90
7218;DHT22;3650;53.580;10.094;2022-07-05T08:17:38;18.90;43.30
7218;DHT22;3650;53.580;10.094;2022-07-05T08:20:25;18.90;44.40
7218;DHT22;3650;53.580;10.094;2022-07-05T08:23:09;18.90;43.60
7218;DHT22;3650;53.580;10.094;2022-07-05T08:25:36;18.90;39.50
7218;DHT22;3650;53.580;10.094;2022-07-05T08:28:03;18.90;38.10
7218;DHT22;3650;53.580;10.094;2022-07-05T08:30:32;18.90;38.70
7218;DHT22;3650;53.580;10.094;2022-07-05T08:32:59;18.90;38.80
7218;DHT22;3650;53.580;10.094;2022-07-05T08:35:25;19.00;38.40
7218;DHT22;3650;53.580;10.094;2022-07-05T08:37:53;19.00;37.60
7218;DHT22;3650;53.580;10.094;2022-07-05T08:40:22;19.10;37.70
7218;DHT22;3650;53.580;10.094;2022-07-05T08:42:53;19.20;36.10
7218;DHT22;3650;53.580;10.094;2022-07-05T08:45:22;19.20;35.00
7218;DHT22;3650;53.580;10.094;2022-07-05T08:47:53;19.20;34.30
7218;DHT22;3650;53.580;10.094;2022-07-05T08:50:22;19.30;34.80
7218;DHT22;3650;53.580;10.094;2022-07-05T08:52:50;19.30;34.30
7218;DHT22;3650;53.580;10.094;2022-07-05T08:55:17;19.40;33.60
7218;DHT22;3650;53.580;10.094;2022-07-05T08:57:45;19.40;32.80
7218;DHT22;3650;53.580;10.094;2022-07-05T09:00:12;19.40;33.90
7218;DHT22;3650;53.580;10.094;2022-07-05T09:02:39;19.50;33.80
7218;DHT22;3650;53.580;10.094;2022-07-05T09:05:09;19.60;34.10
7218;DHT22;3650;53.580;10.094;2022-07-05T09:07:42;19.60;34.70
7218;DHT22;3650;53.580;10.094;2022-07-05T09:10:11;19.70;34.60
7218;DHT22;3650;53.580;10.094;2022-07-05T09:12:38;19.70;34.70
7218;DHT22;3650;53.580;10.094;2022-07-05T09:15:06;19.70;33.40
7218;DHT22;3650;53.580;10.094;2022-07-05T09:17:33;19.70;33.20
7218;DHT22;3650;53.580;10.094;2022-07-05T09:20:11;19.70;33.80
7218;DHT22;3650;53.580;10.094;2022-07-05T09:22:45;19.70;34.30
7218;DHT22;3650;53.580;10.094;2022-07-05T09:25:17;19.70;33.80
7218;DHT22;3650;53.580;10.094;2022-07-05T09:27:53;19.70;33.60
7218;DHT22;3650;53.580;10.094;2022-07-05T09:30:24;19.70;34.00
7218;DHT22;3650;53.580;10.094;2022-07-05T09:33:00;19.70;33.00
7218;DHT22;3650;53.580;10.094;2022-07-05T09:35:28;19.70;33.00
7218;DHT22;3650;53.580;10.094;2022-07-05T09:37:55;19.70;33.10
7218;DHT22;3650;53.580;10.094;2022-07-05T09:40:22;19.70;33.70
7218;DHT22;3650;53.580;10.094;2022-07-05T09:42:49;19.70;34.30
7218;DHT22;3650;53.580;10.094;2022-07-05T09:45:22;19.70;35.00
7218;DHT22;3650;53.580;10.094;2022-07-05T09:47:49;19.70;35.20
7218;DHT22;3650;53.580;10.094;2022-07-05T09:50:36;19.70;34.60
7218;DHT22;3650;53.580;10.094;2022-07-05T09:53:03;19.70;35.00
7218;DHT22;3650;53.580;10.094;2022-07-05T09:55:31;19.80;35.00
7218;DHT22;3650;53.580;10.094;2022-07-05T09:57:58;19.80;35.00
7218;DHT22;3650;53.580;10.094;2022-07-05T10:00:25;19.90;35.70
7218;DHT22;3650;53.580;10.094;2022-07-05T10:02:53;19.90;34.60
7218;DHT22;3650;53.580;10.094;2022-07-05T10:05:26;19.90;34.60
7218;DHT22;3650;53.580;10.094;2022-07-05T10:07:55;19.90;33.20
7218;DHT22;3650;53.580;10.094;2022-07-05T10:10:23;19.90;32.10
7218;DHT22;3650;53.580;10.094;2022-07-05T10:12:52;20.00;32.40
7218;DHT22;3650;53.580;10.094;2022-07-05T10:15:20;20.00;31.30
7218;DHT22;3650;53.580;10.094;2022-07-05T10:17:52;20.00;30.70
7218;DHT22;3650;53.580;10.094;2022-07-05T10:20:24;20.00;29.80
7218;DHT22;3650;53.580;10.094;2022-07-05T10:22:53;20.10;30.80
7218;DHT22;3650;53.580;10.094;2022-07-05T10:25:22;20.10;30.90
7218;DHT22;3650;53.580;10.094;2022-07-05T10:27:50;20.20;32.10
7218;DHT22;3650;53.580;10.094;2022-07-05T10:30:20;20.30;32.90
7218;DHT22;3650;53.580;10.094;2022-07-05T10:32:47;20.40;33.60
7218;DHT22;3650;53.580;10.094;2022-07-05T10:35:15;20.40;33.60
7218;DHT22;3650;53.580;10.094;2022-07-05T10:37:43;20.50;32.50
7218;DHT22;3650;53.580;10.094;2022-07-05T10:40:12;20.50;32.10
7218;DHT22;3650;53.580;10.094;2022-07-05T10:42:40;20.50;30.90
7218;DHT22;3650;53.580;10.094;2022-07-05T10:45:26;20.60;30.90
7218;DHT22;3650;53.580;10.094;2022-07-05T10:48:16;20.70;31.10
7218;DHT22;3650;53.580;10.094;2022-07-05T10:50:44;20.80;30.40
7218;DHT22;3650;53.580;10.094;2022-07-05T10:53:11;20.80;30.50
7218;DHT22;3650;53.580;10.094;2022-07-05T10:55:54;20.80;30.20
7218;DHT22;3650;53.580;10.094;2022-07-05T10:58:26;20.70;30.30
7218;DHT22;3650;53.580;10.094;2022-07-05T11:04:20;20.70;30.00
7218;DHT22;3650;53.580;10.094;2022-07-05T11:06:48;20.70;30.00
7218;DHT22;3650;53.580;10.094;2022-07-05T11:09:19;20.70;30.20
7218;DHT22;3650;53.580;10.094;2022-07-05T11:12:04;20.70;31.50
7218;DHT22;3650;53.580;10.094;2022-07-05T11:14:39;20.70;31.10
7218;DHT22;3650;53.580;10.094;2022-07-05T11:17:17;20.70;30.70
7218;DHT22;3650;53.580;10.094;2022-07-05T11:20:25;20.70;31.00
7218;DHT22;3650;53.580;10.094;2022-07-05T11:23:10;20.60;31.50
7218;DHT22;3650;53.580;10.094;2022-07-05T11:25:39;20.60;31.00
7218;DHT22;3650;53.580;10.094;2022-07-05T11:28:17;20.70;31.10
7218;DHT22;3650;53.580;10.094;2022-07-05T11:30:52;20.80;31.40
7218;DHT22;3650;53.580;10.094;2022-07-05T11:33:29;20.80;31.30
7218;DHT22;3650;53.580;10.094;2022-07-05T11:35:57;20.90;31.50
7218;DHT22;3650;53.580;10.094;2022-07-05T11:38:24;21.00;31.20
7218;DHT22;3650;53.580;10.094;2022-07-05T11:40:51;21.00;31.20
7218;DHT22;3650;53.580;10.094;2022-07-05T11:43:26;21.00;30.60
7218;DHT22;3650;53.580;10.094;2022-07-05T11:45:57;21.00;30.40
7218;DHT22;3650;53.580;10.094;2022-07-05T11:48:26;21.00;31.40
7218;DHT22;3650;53.580;10.094;2022-07-05T11:50:53;21.00;31.20
7218;DHT22;3650;53.580;10.094;2022-07-05T11:53:28;21.20;32.00
7218;DHT22;3650;53.580;10.094;2022-07-05T11:55:57;21.30;31.00
7218;DHT22;3650;53.580;10.094;2022-07-05T11:58:31;21.40;32.30
7218;DHT22;3650;53.580;10.094;2022-07-05T12:00:58;21.50;30.90
7218;DHT22;3650;53.580;10.094;2022-07-05T12:03:26;21.60;29.40
7218;DHT22;3650;53.580;10.094;2022-07-05T12:05:53;21.60;28.90
7218;DHT22;3650;53.580;10.094;2022-07-05T12:08:20;21.50;29.20
7218;DHT22;3650;53.580;10.094;2022-07-05T12:10:47;21.50;29.20
7218;DHT22;3650;53.580;10.094;2022-07-05T12:13:42;21.50;30.00
7218;DHT22;3650;53.580;10.094;2022-07-05T12:16:10;21.50;30.00
7218;DHT22;3650;53.580;10.094;2022-07-05T12:18:49;21.50;29.40
7218;DHT22;3650;53.580;10.094;2022-07-05T12:21:16;21.40;30.60
7218;DHT22;3650;53.580;10.094;2022-07-05T12:23:46;21.30;30.60
7218;DHT22;3650;53.580;10.094;2022-07-05T12:26:14;21.30;30.40
7218;DHT22;3650;53.580;10.094;2022-07-05T12:28:43;21.20;31.30
7218;DHT22;3650;53.580;10.094;2022-07-05T12:31:17;21.30;33.60
7218;DHT22;3650;53.580;10.094;2022-07-05T12:33:45;21.40;30.20
7218;DHT22;3650;53.580;10.094;2022-07-05T12:36:13;21.60;29.60
7218;DHT22;3650;53.580;10.094;2022-07-05T12:38:41;21.70;28.90
7218;DHT22;3650;53.580;10.094;2022-07-05T12:41:08;21.70;28.30
7218;DHT22;3650;53.580;10.094;2022-07-05T12:43:50;21.80;29.10
7218;DHT22;3650;53.580;10.094;2022-07-05T12:46:17;21.70;29.30
7218;DHT22;3650;53.580;10.094;2022-07-05T12:48:50;21.80;29.00
7218;DHT22;3650;53.580;10.094;2022-07-05T12:51:31;21.80;28.80
7218;DHT22;3650;53.580;10.094;2022-07-05T12:53:59;21.90;29.40
7218;DHT22;3650;53.580;10.094;2022-07-05T12:56:46;21.90;29.60
7218;DHT22;3650;53.580;10.094;2022-07-05T12:59:32;21.90;30.90
7218;DHT22;3650;53.580;10.094;2022-07-05T13:02:00;22.00;29.00
7218;DHT22;3650;53.580;10.094;2022-07-05T13:04:27;22.00;28.60
7218;DHT22;3650;53.580;10.094;2022-07-05T13:06:55;22.00;28.80
7218;DHT22;3650;53.580;10.094;2022-07-05T13:09:33;22.10;28.40
7218;DHT22;3650;53.580;10.094;2022-07-05T13:12:09;22.10;28.90
7218;DHT22;3650;53.580;10.094;2022-07-05T13:14:39;22.00;28.90
7218;DHT22;3650;53.580;10.094;2022-07-05T13:17:06;22.10;29.40
7218;DHT22;3650;53.580;10.094;2022-07-05T13:19:33;22.00;28.60
7218;DHT22;3650;53.580;10.094;2022-07-05T13:22:01;21.90;28.40
7218;DHT22;3650;53.580;10.094;2022-07-05T13:24:28;21.80;28.80
7218;DHT22;3650;53.580;10.094;2022-07-05T13:26:55;21.80;29.80
7218;DHT22;3650;53.580;10.094;2022-07-05T13:29:22;21.80;29.70
7218;DHT22;3650;53.580;10.094;2022-07-05T13:31:50;21.70;29.30
7218;DHT22;3650;53.580;10.094;2022-07-05T13:34:18;21.70;29.40
7218;DHT22;3650;53.580;10.094;2022-07-05T13:36:45;21.70;30.10
7218;DHT22;3650;53.580;10.094;2022-07-05T13:39:12;21.60;30.20
7218;DHT22;3650;53.580;10.094;2022-07-05T13:41:39;21.60;30.70
7218;DHT22;3650;53.580;10.094;2022-07-05T13:44:05;21.50;30.90
7218;DHT22;3650;53.580;10.094;2022-07-05T13:46:32;21.40;31.50
7218;DHT22;3650;53.580;10.094;2022-07-05T13:49:00;21.20;32.00
7218;DHT22;3650;53.580;10.094;2022-07-05T13:51:27;21.10;32.40
7218;DHT22;3650;53.580;10.094;2022-07-05T13:53:54;21.00;33.00
7218;DHT22;3650;53.580;10.094;2022-07-05T13:56:21;21.00;33.20
7218;DHT22;3650;53.580;10.094;2022-07-05T13:58:48;20.90;34.00
7218;DHT22;3650;53.580;10.094;2022-07-05T14:01:15;20.80;33.90
7218;DHT22;3650;53.580;10.094;2022-07-05T14:03:42;20.80;34.00
7218;DHT22;3650;53.580;10.094;2022-07-05T14:06:13;20.70;35.10
7218;DHT22;3650;53.580;10.094;2022-07-05T14:08:40;20.60;35.50
7218;DHT22;3650;53.580;10.094;2022-07-05T14:11:08;20.40;35.80
7218;DHT22;3650;53.580;10.094;2022-07-05T14:13:38;20.40;36.20
7218;DHT22;3650;53.580;10.094;2022-07-05T14:16:06;20.40;36.70
7218;DHT22;3650;53.580;10.094;2022-07-05T14:18:33;20.50;36.80
7218;DHT22;3650;53.580;10.094;2022-07-05T14:21:00;20.60;36.70
7218;DHT22;3650;53.580;10.094;2022-07-05T14:23:29;20.70;35.60
7218;DHT22;3650;53.580;10.094;2022-07-05T14:25:57;20.70;35.60
7218;DHT22;3650;53.580;10.094;2022-07-05T14:28:24;20.70;36.20
7218;DHT22;3650;53.580;10.094;2022-07-05T14:30:51;20.70;35.80
7218;DHT22;3650;53.580;10.094;2022-07-05T14:33:18;20.70;35.90
7218;DHT22;3650;53.580;10.094;2022-07-05T14:35:45;20.70;35.90
7218;DHT22;3650;53.580;10.094;2022-07-05T14:38:12;20.60;36.10
7218;DHT22;3650;53.580;10.094;2022-07-05T14:40:40;20.60;36.40
7218;DHT22;3650;53.580;10.094;2022-07-05T14:43:07;20.50;36.80
7218;DHT22;3650;53.580;10.094;2022-07-05T14:45:34;20.50;37.40
7218;DHT22;3650;53.580;10.094;2022-07-05T14:48:01;20.50;37.60
7218;DHT22;3650;53.580;10.094;2022-07-05T14:50:28;20.50;37.80
7218;DHT22;3650;53.580;10.094;2022-07-05T14:52:55;20.40;37.80
7218;DHT22;3650;53.580;10.094;2022-07-05T14:55:22;20.40;38.20
7218;DHT22;3650;53.580;10.094;2022-07-05T14:57:50;20.40;38.10
7218;DHT22;3650;53.580;10.094;2022-07-05T15:00:17;20.50;38.50
7218;DHT22;3650;53.580;10.094;2022-07-05T15:02:44;20.50;38.70
7218;DHT22;3650;53.580;10.094;2022-07-05T15:05:11;20.50;38.90
7218;DHT22;3650;53.580;10.094;2022-07-05T15:07:38;20.50;38.90
7218;DHT22;3650;53.580;10.094;2022-07-05T15:10:07;20.60;39.20
7218;DHT22;3650;53.580;10.094;2022-07-05T15:12:34;20.70;38.20
7218;DHT22;3650;53.580;10.094;2022-07-05T15:15:03;20.70;37.80
7218;DHT22;3650;53.580;10.094;2022-07-05T15:17:30;20.60;37.80
7218;DHT22;3650;53.580;10.094;2022-07-05T15:19:59;20.60;38.00
7218;DHT22;3650;53.580;10.094;2022-07-05T15:22:26;20.50;37.80
7218;DHT22;3650;53.580;10.094;2022-07-05T15:24:52;20.40;38.00
7218;DHT22;3650;53.580;10.094;2022-07-05T15:27:19;20.40;38.20
7218;DHT22;3650;53.580;10.094;2022-07-05T15:29:46;20.30;38.40
7218;DHT22;3650;53.580;10.094;2022-07-05T15:32:15;20.30;38.10
7218;DHT22;3650;53.580;10.094;2022-07-05T15:34:42;20.30;38.50
7218;DHT22;3650;53.580;10.094;2022-07-05T15:37:09;20.40;38.80
7218;DHT22;3650;53.580;10.094;2022-07-05T15:39:36;20.40;38.50
7218;DHT22;3650;53.580;10.094;2022-07-05T15:42:04;20.40;39.30
7218;DHT22;3650;53.580;10.094;2022-07-05T15:44:31;20.50;39.50
7218;DHT22;3650;53.580;10.094;2022-07-05T15:46:58;20.60;40.30
7218;DHT22;3650;53.580;10.094;2022-07-05T15:49:31;20.80;39.90
7218;DHT22;3650;53.580;10.094;2022-07-05T15:51:58;20.90;39.70
7218;DHT22;3650;53.580;10.094;2022-07-05T15:54:26;21.10;39.90
7218;DHT22;3650;53.580;10.094;2022-07-05T15:56:53;21.20;38.10